createdAt,value
2023-07-17T00:00:20.504Z,18.2
2023-07-17T00:02:24.393Z,18.2
2023-07-17T00:04:28.338Z,18.2
2023-07-17T00:06:32.319Z,18.2
2023-07-17T00:08:36.236Z,18.1
2023-07-17T00:10:40.166Z,18.1
2023-07-17T00:12:44.127Z,18.1
2023-07-17T00:14:50.883Z,18
2023-07-17T00:16:54.858Z,18
2023-07-17T00:18:58.755Z,17.9
2023-07-17T00:21:02.710Z,17.9
2023-07-17T00:23:09.063Z,17.9
2023-07-17T00:27:14.560Z,17.9
2023-07-17T00:29:21.307Z,17.8
2023-07-17T00:31:25.306Z,17.8
2023-07-17T00:33:29.172Z,17.8
2023-07-17T00:34:32.575Z,17.9
2023-07-17T00:36:36.509Z,17.8
2023-07-17T00:42:51.141Z,17.7
2023-07-17T00:44:55.092Z,17.7
2023-07-17T00:46:59.112Z,17.7
2023-07-17T00:49:02.967Z,17.6
2023-07-17T00:53:10.861Z,17.6
2023-07-17T00:55:14.815Z,17.5
2023-07-17T00:57:21.567Z,17.5
2023-07-17T00:59:25.530Z,17.5
2023-07-17T01:01:29.537Z,17.5
2023-07-17T01:11:52.010Z,17.3
2023-07-17T01:20:07.794Z,17.1
2023-07-17T01:22:11.721Z,17.1
2023-07-17T01:24:15.643Z,17.1
2023-07-17T01:26:22.456Z,17
2023-07-17T01:30:30.368Z,17
2023-07-17T01:31:33.779Z,17
2023-07-17T01:33:37.636Z,16.9
2023-07-17T01:37:45.536Z,16.8
2023-07-17T01:41:56.679Z,16.7
2023-07-17T01:44:00.634Z,16.6
2023-07-17T01:46:04.691Z,16.5
2023-07-17T01:52:16.407Z,16.4
2023-07-17T01:54:23.165Z,16.3
2023-07-17T01:56:27.115Z,16.3
2023-07-17T01:58:31.061Z,16.2
2023-07-17T02:00:35.031Z,16.2
2023-07-17T02:02:38.974Z,16.2
2023-07-17T02:06:46.844Z,16.1
2023-07-17T02:13:01.533Z,16
2023-07-17T02:15:05.431Z,15.9
2023-07-17T02:17:09.396Z,15.9
2023-07-17T02:19:13.326Z,15.8
2023-07-17T02:21:17.536Z,15.8
2023-07-17T02:23:24.095Z,15.7
2023-07-17T02:25:27.980Z,15.7
2023-07-17T02:27:31.916Z,15.7
2023-07-17T02:28:35.324Z,15.7
2023-07-17T02:30:39.250Z,15.7
2023-07-17T02:32:43.231Z,15.6
2023-07-17T02:34:47.123Z,15.6
2023-07-17T02:36:53.922Z,15.5
2023-07-17T02:38:57.833Z,15.5
2023-07-17T02:41:01.772Z,15.5
2023-07-17T02:43:05.724Z,15.4
2023-07-17T02:49:19.010Z,15.4
2023-07-17T02:51:25.761Z,15.3
2023-07-17T02:55:33.638Z,15.2
2023-07-17T02:57:37.593Z,15.3
2023-07-17T02:59:41.520Z,15.2
2023-07-17T03:01:45.479Z,15.2
2023-07-17T03:03:49.407Z,15.2
2023-07-17T03:08:00.114Z,15.1
2023-07-17T03:10:04.047Z,15.1
2023-07-17T03:12:07.964Z,15.2
2023-07-17T03:14:11.927Z,15.1
2023-07-17T03:16:15.916Z,15.1
2023-07-17T03:18:19.804Z,15.1
2023-07-17T03:20:26.556Z,15
2023-07-17T03:22:30.537Z,15
2023-07-17T03:31:06.310Z,15
2023-07-17T03:41:28.814Z,14.9
2023-07-17T03:51:51.277Z,14.9
2023-07-17T03:53:55.219Z,14.9
2023-07-17T03:55:59.179Z,14.9
2023-07-17T03:58:03.091Z,14.9
2023-07-17T04:00:07.028Z,14.9
2023-07-17T04:02:13.796Z,14.9
2023-07-17T04:04:17.811Z,14.9
2023-07-17T04:06:21.636Z,14.9
2023-07-17T04:08:25.584Z,14.9
2023-07-17T04:10:29.569Z,14.9
2023-07-17T04:12:33.447Z,14.9
2023-07-17T04:14:37.418Z,14.9
2023-07-17T04:16:44.194Z,14.9
2023-07-17T04:18:48.120Z,14.9
2023-07-17T04:20:52.046Z,15
2023-07-17T04:21:55.447Z,15.1
2023-07-17T04:23:59.390Z,15.1
2023-07-17T04:26:03.278Z,15.1
2023-07-17T04:30:14.054Z,15.8
2023-07-17T04:32:17.913Z,16.2
2023-07-17T04:34:21.864Z,16.6
2023-07-17T04:38:29.728Z,17.4
2023-07-17T04:40:33.672Z,17.8
2023-07-17T04:44:44.348Z,18.3
2023-07-17T04:46:48.350Z,18.5
2023-07-17T04:48:52.247Z,18.4
2023-07-17T04:53:02.034Z,18.4
2023-07-17T04:55:04.066Z,18.5
2023-07-17T04:57:08.061Z,18.7
2023-07-17T04:59:14.755Z,18.9
2023-07-17T05:07:30.539Z,19.4
2023-07-17T05:11:38.392Z,19.9
2023-07-17T05:13:45.175Z,20
2023-07-17T05:18:56.404Z,19.5
2023-07-17T05:21:00.346Z,19.8
2023-07-17T05:23:04.342Z,19.8
2023-07-17T05:25:08.194Z,19.6
2023-07-17T05:27:14.946Z,19.6
2023-07-17T05:29:18.905Z,19.9
2023-07-17T05:50:00.886Z,19.8
2023-07-17T05:52:04.836Z,20
2023-07-17T05:54:08.742Z,20
2023-07-17T05:58:19.412Z,20.8
2023-07-17T06:06:35.015Z,20.4
2023-07-17T06:08:38.933Z,20.4
2023-07-17T06:12:49.568Z,18.5
2023-07-17T06:15:56.885Z,19.5
2023-07-17T06:22:08.626Z,19.3
2023-07-17T06:24:15.351Z,18.7
2023-07-17T06:28:23.155Z,20
2023-07-17T06:30:27.062Z,19.1
2023-07-17T06:36:38.793Z,20.5
2023-07-17T06:38:45.522Z,18.9
2023-07-17T06:47:01.194Z,18.1
2023-07-17T06:51:09.007Z,18.9
2023-07-17T06:53:15.768Z,20.6
2023-07-17T06:55:19.697Z,20.3
2023-07-17T06:57:23.596Z,19.2
2023-07-17T06:59:27.532Z,20
2023-07-17T07:01:31.471Z,20.9
2023-07-17T07:03:35.395Z,19.8
2023-07-17T07:05:39.247Z,19.1
2023-07-17T07:07:46.005Z,18.4
2023-07-17T07:09:49.924Z,18.3
2023-07-17T07:11:53.827Z,18.1
2023-07-17T07:14:23.534Z,19.5
2023-07-17T07:16:27.479Z,19.5
2023-07-17T07:20:38.095Z,18.4
2023-07-17T07:26:49.843Z,18.1
2023-07-17T07:37:12.309Z,21.2
2023-07-17T07:41:20.133Z,20.6
2023-07-17T07:45:27.967Z,20.7
2023-07-17T07:47:31.948Z,20.6
2023-07-17T07:55:50.319Z,19.8
2023-07-17T08:02:02.100Z,19.7
2023-07-17T08:04:08.858Z,19.9
2023-07-17T08:06:12.729Z,19.9
2023-07-17T08:08:16.708Z,19.8
2023-07-17T08:09:19.976Z,19.8
2023-07-17T08:15:31.734Z,19.6
2023-07-17T08:23:50.183Z,20.6
2023-07-17T08:30:01.924Z,20.3
2023-07-17T08:32:08.662Z,20.1
2023-07-17T08:38:20.345Z,20.4
2023-07-17T08:40:24.223Z,21
2023-07-17T08:46:40.277Z,21.2
2023-07-17T08:48:44.091Z,21.6
2023-07-17T08:50:47.981Z,22
2023-07-17T08:52:51.860Z,22.2
2023-07-17T08:54:55.711Z,22.3
2023-07-17T08:56:59.597Z,22.6
2023-07-17T08:59:03.442Z,22.5
2023-07-17T09:03:14.071Z,22.8
2023-07-17T09:06:21.198Z,23.2
2023-07-17T09:08:25.010Z,22.7
2023-07-17T09:10:28.874Z,22.5
2023-07-17T09:12:32.677Z,23.4
2023-07-17T09:14:39.469Z,22.9
2023-07-17T09:27:02.292Z,23
2023-07-17T09:33:16.582Z,22.8
2023-07-17T09:35:20.434Z,22.7
2023-07-17T09:37:24.228Z,23.1
2023-07-17T09:39:28.045Z,23.3
2023-07-17T10:03:19.418Z,22
2023-07-17T10:05:23.270Z,22.3
2023-07-17T10:07:27.157Z,22.4
2023-07-17T10:09:31.012Z,22
2023-07-17T10:11:37.767Z,21
2023-07-17T10:13:41.647Z,20.8
2023-07-17T10:15:45.541Z,19.8
2023-07-17T10:17:49.450Z,18.5
2023-07-17T10:19:53.302Z,18.2
2023-07-17T10:21:57.199Z,18.5
2023-07-17T10:26:07.844Z,18.9
2023-07-17T10:28:11.719Z,19
2023-07-17T10:30:15.640Z,18.9
2023-07-17T10:32:19.546Z,19
2023-07-17T10:34:23.457Z,19.1
2023-07-17T10:40:38.021Z,18.8
2023-07-17T10:42:41.951Z,18.7
2023-07-17T10:48:53.709Z,18.2
2023-07-17T11:01:46.084Z,17.4
2023-07-17T11:03:49.825Z,17.5
2023-07-17T11:05:53.723Z,17.5
2023-07-17T11:08:00.483Z,17.8
2023-07-17T11:10:04.479Z,17.9
2023-07-17T11:12:08.343Z,18.2
2023-07-17T11:14:12.331Z,18.5
2023-07-17T11:16:16.260Z,18.6
2023-07-17T11:18:20.390Z,19.2
2023-07-17T11:22:30.892Z,19.6
2023-07-17T11:24:34.798Z,19.9
2023-07-17T11:34:54.465Z,21.7
2023-07-17T11:39:05.160Z,21.7
2023-07-17T11:41:09.100Z,21.7
2023-07-17T11:43:12.986Z,21.5
2023-07-17T11:45:16.889Z,21.1
2023-07-17T11:47:20.835Z,20.6
2023-07-17T11:49:24.725Z,20.4
2023-07-17T11:51:31.486Z,20
2023-07-17T11:56:42.908Z,18.7
2023-07-17T12:00:50.501Z,17.5
2023-07-17T12:02:54.452Z,17.4
2023-07-17T12:05:01.160Z,17.2
2023-07-17T12:07:05.060Z,17.2
2023-07-17T12:09:09.004Z,17.3
2023-07-17T12:11:12.927Z,17.4
2023-07-17T12:15:20.736Z,17.4
2023-07-17T12:19:31.449Z,17.8
2023-07-17T12:21:39.030Z,17.8
2023-07-17T12:23:39.302Z,17.9
2023-07-17T12:27:47.134Z,18.1
2023-07-17T12:29:51.082Z,18.4
2023-07-17T12:31:55.049Z,19.7
2023-07-17T12:34:01.788Z,21.1
2023-07-17T12:38:09.617Z,19.9
2023-07-17T12:40:13.582Z,19.8
2023-07-17T12:46:25.423Z,19.5
2023-07-17T12:48:32.182Z,19.9
2023-07-17T12:53:43.329Z,23.5
2023-07-17T12:55:48.909Z,23
2023-07-17T12:57:51.809Z,22.2
2023-07-17T12:59:55.731Z,22.2
2023-07-17T13:02:02.647Z,21.3
2023-07-17T13:04:06.488Z,21
2023-07-17T13:06:10.328Z,20.7
2023-07-17T13:12:30.167Z,19.9
2023-07-17T13:14:26.004Z,19.7
2023-07-17T13:16:32.848Z,19.2
2023-07-17T13:20:40.614Z,18.6
2023-07-17T13:24:48.445Z,17.8
2023-07-17T13:26:52.346Z,17.4
2023-07-17T13:28:56.301Z,17.2
2023-07-17T13:31:21.897Z,17.7
2023-07-17T13:37:14.812Z,17.9
2023-07-17T13:39:18.744Z,18.1
2023-07-17T13:41:22.847Z,18
2023-07-17T13:43:26.602Z,18.1
2023-07-17T13:45:33.376Z,18.3
2023-07-17T13:47:37.377Z,18.4
2023-07-17T13:49:41.209Z,18.5
2023-07-17T13:50:44.625Z,18.5
2023-07-17T13:52:48.559Z,18.6
2023-07-17T13:54:52.442Z,19.1
2023-07-17T13:59:03.120Z,19.1
2023-07-17T14:01:07.117Z,19.2
2023-07-17T14:03:11.074Z,19.2
2023-07-17T14:05:14.905Z,19.4
2023-07-17T14:07:18.851Z,19.5
2023-07-17T14:09:22.759Z,19.4
2023-07-17T14:11:29.777Z,19.3
2023-07-17T14:13:33.463Z,19.4
2023-07-17T14:15:37.362Z,19.5
2023-07-17T14:17:41.313Z,20.1
2023-07-17T14:19:45.226Z,20.7
2023-07-17T14:21:49.142Z,20.4
2023-07-17T14:25:56.979Z,20.3
2023-07-17T14:30:07.638Z,21.5
2023-07-17T14:34:15.506Z,21.5
2023-07-17T14:38:23.304Z,20.9
2023-07-17T14:42:35.551Z,20.4
2023-07-17T14:46:43.268Z,20.2
2023-07-17T14:51:14.728Z,20.1
2023-07-17T14:53:18.639Z,20.1
2023-07-17T14:59:33.222Z,19.7
2023-07-17T15:01:37.241Z,19.7
2023-07-17T15:05:44.953Z,19.9
2023-07-17T15:07:48.883Z,20
2023-07-17T15:09:55.635Z,19.9
2023-07-17T15:11:59.558Z,20
2023-07-17T15:16:07.443Z,19.7
2023-07-17T15:18:11.358Z,19.7
2023-07-17T15:20:15.253Z,19.8
2023-07-17T15:22:19.114Z,19.8
2023-07-17T15:24:25.874Z,20.1
2023-07-17T15:26:29.812Z,20.1
2023-07-17T15:36:49.364Z,21.4
2023-07-17T15:41:00.049Z,21.5
2023-07-17T15:43:06.451Z,21.5
2023-07-17T15:46:11.237Z,21.7
2023-07-17T16:00:41.441Z,21
2023-07-17T16:02:45.385Z,21
2023-07-17T16:06:55.994Z,20.8
2023-07-17T16:19:19.436Z,20.8
2023-07-17T16:21:26.201Z,20.6
2023-07-17T16:23:30.120Z,20.9
2023-07-17T16:29:41.847Z,21.4
2023-07-17T16:33:49.674Z,21.2
2023-07-17T16:38:00.307Z,20.6
2023-07-17T16:41:08.155Z,20.8
2023-07-17T16:43:12.048Z,20.9
2023-07-17T16:45:16.048Z,20.8
2023-07-17T16:47:19.866Z,20.8
2023-07-17T16:49:26.610Z,20.9
2023-07-17T16:51:30.520Z,21
2023-07-17T16:53:34.440Z,21.1
2023-07-17T16:55:38.345Z,20.9
2023-07-17T16:57:42.259Z,20.8
2023-07-17T16:59:46.158Z,20.7
2023-07-17T17:01:50.094Z,20.7
2023-07-17T17:08:04.690Z,21.2
2023-07-17T17:12:12.511Z,21.6
2023-07-17T17:22:34.943Z,21
2023-07-17T17:24:38.824Z,21.2
2023-07-17T17:30:50.653Z,21.2
2023-07-17T17:32:57.418Z,21.1
2023-07-17T17:35:01.232Z,21.1
2023-07-17T17:37:05.162Z,21.1
2023-07-17T17:38:08.557Z,21.2
2023-07-17T17:40:12.458Z,21.2
2023-07-17T17:42:16.360Z,21.2
2023-07-17T17:48:30.996Z,20.9
2023-07-17T17:50:34.846Z,20.9
2023-07-17T17:52:38.775Z,20.9
2023-07-17T17:54:42.676Z,20.9
2023-07-17T18:00:57.251Z,20.9
2023-07-17T18:09:12.897Z,20.5
2023-07-17T18:11:17.130Z,20.4
2023-07-17T18:13:20.738Z,20.4
2023-07-17T18:19:35.294Z,20.4
2023-07-17T18:21:39.247Z,20.2
2023-07-17T18:23:43.139Z,20.1
2023-07-17T18:25:47.083Z,20.1
2023-07-17T18:27:50.974Z,20
2023-07-17T18:29:57.738Z,20
2023-07-17T18:36:35.273Z,19.7
2023-07-17T18:40:43.123Z,19.7
2023-07-17T18:42:49.887Z,19.6
2023-07-17T18:44:53.796Z,19.6
2023-07-17T18:46:57.708Z,19.6
2023-07-17T18:49:01.651Z,19.5
2023-07-17T18:51:05.560Z,19.5
2023-07-17T18:53:09.501Z,19.5
2023-07-17T18:55:13.438Z,19.5
2023-07-17T18:57:20.162Z,19.4
2023-07-17T18:59:24.120Z,19.3
2023-07-17T19:01:28.083Z,19.3
2023-07-17T19:03:32.063Z,19.2
2023-07-17T19:05:35.891Z,19.2
2023-07-17T19:07:39.848Z,19.2
2023-07-17T19:09:43.749Z,19.1
2023-07-17T19:11:50.561Z,19.1
2023-07-17T19:13:54.450Z,19
2023-07-17T19:15:58.371Z,18.9
2023-07-17T19:18:02.390Z,18.9
2023-07-17T19:20:06.249Z,18.7
2023-07-17T19:22:10.225Z,18.7
2023-07-17T19:31:32.141Z,18.4
2023-07-17T19:33:36.036Z,18.4
2023-07-17T19:35:39.959Z,18.3
2023-07-17T19:37:43.913Z,18.3
2023-07-17T19:39:50.657Z,18.2
2023-07-17T19:43:58.535Z,18
2023-07-17T19:52:14.279Z,17.7
2023-07-17T19:54:21.045Z,17.6
2023-07-17T20:15:03.268Z,16.9
2023-07-17T20:17:07.228Z,16.8
2023-07-17T20:19:11.134Z,16.8
2023-07-17T20:21:15.151Z,16.8
2023-07-17T20:23:21.861Z,16.7
2023-07-17T20:25:25.784Z,16.7
2023-07-17T20:27:29.728Z,16.6
2023-07-17T20:38:57.113Z,16.4
2023-07-17T20:41:01.093Z,16.4
2023-07-17T20:47:12.894Z,16.3
2023-07-17T20:49:16.824Z,16.3
2023-07-17T20:51:23.595Z,16.2
2023-07-17T20:59:39.344Z,16
2023-07-17T21:05:53.987Z,15.8
2023-07-17T21:07:57.904Z,15.8
2023-07-17T21:10:01.915Z,15.7
2023-07-17T21:12:05.827Z,15.7
2023-07-17T21:14:09.708Z,15.6
2023-07-17T21:16:13.680Z,15.6
2023-07-17T21:18:17.623Z,15.5
2023-07-17T21:20:24.379Z,15.5
2023-07-17T21:22:28.347Z,15.5
2023-07-17T21:24:32.263Z,15.4
2023-07-17T21:31:47.447Z,15.2
2023-07-17T21:33:54.334Z,15.1
2023-07-17T21:35:58.202Z,15.1
2023-07-17T21:38:02.135Z,15.1
2023-07-17T21:40:06.059Z,15.1
2023-07-17T21:42:10.110Z,15.1
2023-07-17T21:44:13.957Z,15
2023-07-17T21:46:17.872Z,15
2023-07-17T21:48:24.631Z,15
2023-07-17T21:50:28.581Z,15
2023-07-17T21:52:32.508Z,14.9
2023-07-17T21:54:36.453Z,14.9
2023-07-17T21:56:40.367Z,14.8
2023-07-17T21:58:44.299Z,14.8
2023-07-17T22:00:48.293Z,14.8
2023-07-17T22:02:55.100Z,14.8
2023-07-17T22:04:58.926Z,14.8
2023-07-17T22:07:02.855Z,14.7
2023-07-17T22:09:06.824Z,14.7
2023-07-17T22:11:10.707Z,14.6
2023-07-17T22:13:16.151Z,14.6
2023-07-17T22:15:18.596Z,14.6
2023-07-17T22:19:29.266Z,14.6
2023-07-17T22:24:02.915Z,14.6
2023-07-17T22:26:07.000Z,14.6
2023-07-17T22:28:10.950Z,14.6
2023-07-17T22:32:21.631Z,14.5
2023-07-17T22:34:25.569Z,14.4
2023-07-17T22:36:29.483Z,14.4
2023-07-17T22:40:37.358Z,14.5
2023-07-17T22:44:48.042Z,14.5
2023-07-17T22:53:03.762Z,14.5
2023-07-17T23:13:48.758Z,14.3
2023-07-17T23:18:59.994Z,14.4
2023-07-17T23:23:07.900Z,14.3
2023-07-17T23:25:11.769Z,14.3
2023-07-17T23:27:18.554Z,14.3
2023-07-17T23:29:22.405Z,14.3
2023-07-17T23:31:26.380Z,14.3
2023-07-17T23:33:30.282Z,14.3
2023-07-17T23:35:34.206Z,14.3
2023-07-17T23:39:42.037Z,14.2
2023-07-17T23:45:56.668Z,14.1
2023-07-17T23:58:23.051Z,14.3
